createdAt,value
2023-05-14T00:00:38.198Z,12.31
2023-05-14T00:01:38.133Z,12.33
2023-05-14T00:02:38.181Z,12.41
2023-05-14T00:03:38.206Z,12.46
2023-05-14T00:04:38.210Z,12.33
2023-05-14T00:05:38.084Z,12.33
2023-05-14T00:06:38.111Z,12.26
2023-05-14T00:07:38.090Z,12.13
2023-05-14T00:08:38.061Z,12.07
2023-05-14T00:09:39.048Z,12.03
2023-05-14T00:10:38.060Z,12.00
2023-05-14T00:11:38.044Z,12.05
2023-05-14T00:12:38.035Z,12.11
2023-05-14T00:13:38.010Z,12.00
2023-05-14T00:14:37.999Z,12.07
2023-05-14T00:15:39.037Z,12.13
2023-05-14T00:16:38.150Z,12.21
2023-05-14T00:17:37.998Z,12.15
2023-05-14T00:18:37.979Z,12.22
2023-05-14T00:19:37.949Z,12.12
2023-05-14T00:20:37.955Z,12.12
2023-05-14T00:21:37.929Z,12.07
2023-05-14T00:22:37.925Z,12.22
2023-05-14T00:23:37.917Z,12.23
2023-05-14T00:24:37.911Z,12.18
2023-05-14T00:25:37.914Z,12.13
2023-05-14T00:26:37.874Z,12.11
2023-05-14T00:27:37.968Z,11.93
2023-05-14T00:28:37.853Z,11.94
2023-05-14T00:29:37.858Z,11.94
2023-05-14T00:30:37.836Z,11.84
2023-05-14T00:31:37.921Z,11.88
2023-05-14T00:32:37.881Z,11.75
2023-05-14T00:33:37.798Z,11.82
2023-05-14T00:34:37.811Z,11.75
2023-05-14T00:35:37.789Z,11.78
2023-05-14T00:36:37.784Z,11.64
2023-05-14T00:37:37.827Z,11.69
2023-05-14T00:38:37.779Z,11.64
2023-05-14T00:39:37.773Z,11.77
2023-05-14T00:40:37.757Z,11.74
2023-05-14T00:41:37.729Z,11.70
2023-05-14T00:42:37.742Z,11.60
2023-05-14T00:43:37.712Z,11.63
2023-05-14T00:44:37.692Z,11.59
2023-05-14T00:45:37.673Z,11.59
2023-05-14T00:46:37.735Z,11.53
2023-05-14T00:47:37.751Z,11.51
2023-05-14T00:48:37.657Z,11.57
2023-05-14T00:49:37.631Z,11.54
2023-05-14T00:50:37.628Z,11.45
2023-05-14T00:51:37.616Z,11.49
2023-05-14T00:52:37.636Z,11.49
2023-05-14T00:53:37.630Z,11.56
2023-05-14T00:54:37.592Z,11.69
2023-05-14T00:55:37.574Z,11.63
2023-05-14T00:56:37.559Z,11.67
2023-05-14T00:57:37.574Z,11.87
2023-05-14T00:58:37.532Z,11.78
2023-05-14T00:59:37.530Z,11.87
2023-05-14T01:00:37.566Z,12.07
2023-05-14T01:01:37.507Z,12.05
2023-05-14T01:02:37.552Z,12.16
2023-05-14T01:03:37.610Z,12.15
2023-05-14T01:04:37.490Z,12.21
2023-05-14T01:05:37.466Z,12.13
2023-05-14T01:06:37.463Z,12.11
2023-05-14T01:07:37.474Z,12.19
2023-05-14T01:08:37.451Z,12.19
2023-05-14T01:09:37.429Z,12.23
2023-05-14T01:10:37.413Z,12.13
2023-05-14T01:11:37.432Z,12.22
2023-05-14T01:12:37.391Z,12.11
2023-05-14T01:13:37.379Z,12.11
2023-05-14T01:14:37.366Z,12.05
2023-05-14T01:15:37.353Z,12.08
2023-05-14T01:16:37.419Z,12.04
2023-05-14T01:17:37.345Z,12.08
2023-05-14T01:18:37.412Z,12.04
2023-05-14T01:19:37.319Z,12.05
2023-05-14T01:20:37.316Z,12.12
2023-05-14T01:21:37.307Z,12.12
2023-05-14T01:22:37.276Z,12.11
2023-05-14T01:23:37.269Z,12.21
2023-05-14T01:24:37.257Z,12.12
2023-05-14T01:25:37.256Z,12.13
2023-05-14T01:26:38.257Z,12.13
2023-05-14T01:27:37.228Z,12.22
2023-05-14T01:28:37.229Z,12.21
2023-05-14T01:29:37.205Z,12.11
2023-05-14T01:30:37.211Z,12.16
2023-05-14T01:31:37.223Z,11.85
2023-05-14T01:32:37.177Z,11.78
2023-05-14T01:33:37.160Z,11.93
2023-05-14T01:34:37.162Z,11.79
2023-05-14T01:35:37.150Z,11.75
2023-05-14T01:36:37.127Z,11.75
2023-05-14T01:37:37.130Z,11.69
2023-05-14T01:38:37.112Z,11.53
2023-05-14T01:39:37.114Z,11.70
2023-05-14T01:40:37.104Z,11.69
2023-05-14T01:41:37.079Z,11.70
2023-05-14T01:42:37.060Z,11.74
2023-05-14T01:43:37.106Z,11.79
2023-05-14T01:44:37.094Z,11.72
2023-05-14T01:45:37.039Z,11.66
2023-05-14T01:46:37.062Z,11.64
2023-05-14T01:47:37.045Z,11.70
2023-05-14T01:48:37.013Z,11.67
2023-05-14T01:49:37.003Z,11.51
2023-05-14T01:50:36.981Z,11.51
2023-05-14T01:51:36.968Z,11.57
2023-05-14T01:52:36.956Z,11.45
2023-05-14T01:53:36.970Z,11.56
2023-05-14T01:54:36.938Z,11.56
2023-05-14T01:55:36.920Z,11.48
2023-05-14T01:56:36.927Z,11.48
2023-05-14T01:57:36.904Z,11.51
2023-05-14T01:58:36.908Z,11.33
2023-05-14T01:59:36.876Z,11.42
2023-05-14T02:00:37.868Z,11.41
2023-05-14T02:01:36.871Z,11.38
2023-05-14T02:02:36.909Z,11.36
2023-05-14T02:03:36.864Z,11.38
2023-05-14T02:04:36.830Z,11.45
2023-05-14T02:05:36.811Z,11.41
2023-05-14T02:06:37.809Z,11.46
2023-05-14T02:07:36.823Z,11.64
2023-05-14T02:08:36.793Z,11.60
2023-05-14T02:09:36.772Z,11.69
2023-05-14T02:10:36.766Z,11.63
2023-05-14T02:11:36.767Z,11.72
2023-05-14T02:12:36.757Z,11.82
2023-05-14T02:13:36.742Z,11.75
2023-05-14T02:14:36.727Z,11.78
2023-05-14T02:15:36.753Z,11.81
2023-05-14T02:16:36.714Z,11.90
2023-05-14T02:17:36.842Z,11.78
2023-05-14T02:18:36.746Z,11.67
2023-05-14T02:19:36.673Z,11.70
2023-05-14T02:20:36.669Z,11.79
2023-05-14T02:21:36.662Z,11.72
2023-05-14T02:22:36.647Z,11.70
2023-05-14T02:23:41.410Z,11.64
2023-05-14T02:24:38.620Z,11.66
2023-05-14T02:25:36.617Z,11.59
2023-05-14T02:26:36.616Z,11.69
2023-05-14T02:27:36.597Z,11.66
2023-05-14T02:28:36.610Z,11.66
2023-05-14T02:29:36.586Z,11.67
2023-05-14T02:30:36.579Z,11.64
2023-05-14T02:31:36.578Z,11.64
2023-05-14T02:32:36.642Z,11.54
2023-05-14T02:33:36.560Z,11.57
2023-05-14T02:34:36.522Z,11.46
2023-05-14T02:35:36.521Z,11.51
2023-05-14T02:36:36.512Z,11.45
2023-05-14T02:37:36.495Z,11.46
2023-05-14T02:38:36.488Z,11.38
2023-05-14T02:39:36.481Z,11.41
2023-05-14T02:40:36.476Z,11.38
2023-05-14T02:41:36.464Z,11.38
2023-05-14T02:42:36.468Z,11.41
2023-05-14T02:43:36.438Z,11.45
2023-05-14T02:44:36.433Z,11.42
2023-05-14T02:45:36.428Z,11.41
2023-05-14T02:46:36.425Z,11.31
2023-05-14T02:47:38.021Z,11.24
2023-05-14T02:48:37.381Z,11.28
2023-05-14T02:49:36.388Z,11.23
2023-05-14T02:50:36.378Z,11.27
2023-05-14T02:51:36.339Z,11.33
2023-05-14T02:52:36.336Z,11.30
2023-05-14T02:53:36.338Z,11.28
2023-05-14T02:54:36.388Z,11.26
2023-05-14T02:55:36.298Z,11.38
2023-05-14T02:56:36.356Z,11.30
2023-05-14T02:57:36.280Z,11.27
2023-05-14T02:58:36.295Z,11.35
2023-05-14T02:59:36.269Z,11.33
2023-05-14T03:00:36.280Z,11.38
2023-05-14T03:01:36.244Z,11.36
2023-05-14T03:02:36.329Z,11.38
2023-05-14T03:03:36.233Z,11.24
2023-05-14T03:04:36.226Z,11.31
2023-05-14T03:05:36.212Z,11.35
2023-05-14T03:06:36.187Z,11.27
2023-05-14T03:07:36.175Z,11.30
2023-05-14T03:08:36.187Z,11.33
2023-05-14T03:09:38.285Z,11.27
2023-05-14T03:10:37.154Z,11.31
2023-05-14T03:11:36.136Z,11.36
2023-05-14T03:12:36.173Z,11.28
2023-05-14T03:13:36.129Z,11.28
2023-05-14T03:14:36.103Z,11.31
2023-05-14T03:15:36.132Z,11.31
2023-05-14T03:16:36.212Z,11.30
2023-05-14T03:17:36.180Z,11.28
2023-05-14T03:18:36.123Z,11.31
2023-05-14T03:19:36.051Z,11.20
2023-05-14T03:20:36.029Z,11.31
2023-05-14T03:21:36.023Z,11.27
2023-05-14T03:22:36.024Z,11.31
2023-05-14T03:23:36.998Z,11.30
2023-05-14T03:24:35.990Z,11.28
2023-05-14T03:25:35.984Z,11.28
2023-05-14T03:26:35.986Z,11.31
2023-05-14T03:27:35.968Z,11.35
2023-05-14T03:28:35.946Z,11.38
2023-05-14T03:29:35.938Z,11.38
2023-05-14T03:30:35.950Z,11.38
2023-05-14T03:31:35.926Z,11.41
2023-05-14T03:32:35.974Z,11.36
2023-05-14T03:33:35.910Z,11.35
2023-05-14T03:34:35.891Z,11.41
2023-05-14T03:35:35.863Z,11.36
2023-05-14T03:36:35.874Z,11.36
2023-05-14T03:37:35.854Z,11.44
2023-05-14T03:38:35.836Z,11.39
2023-05-14T03:39:35.827Z,11.44
2023-05-14T03:40:35.834Z,11.41
2023-05-14T03:41:35.820Z,11.42
2023-05-14T03:42:35.810Z,11.44
2023-05-14T03:43:35.786Z,11.45
2023-05-14T03:44:35.785Z,11.46
2023-05-14T03:45:35.774Z,11.42
2023-05-14T03:46:35.758Z,11.31
2023-05-14T03:47:35.798Z,11.41
2023-05-14T03:48:35.762Z,11.39
2023-05-14T03:49:35.734Z,11.26
2023-05-14T03:50:35.790Z,11.21
2023-05-14T03:51:35.708Z,11.23
2023-05-14T03:52:35.691Z,11.26
2023-05-14T03:53:35.682Z,11.28
2023-05-14T03:54:35.684Z,11.33
2023-05-14T03:55:35.679Z,11.36
2023-05-14T03:56:35.653Z,11.41
2023-05-14T03:57:35.647Z,11.42
2023-05-14T03:58:35.627Z,11.33
2023-05-14T03:59:35.634Z,11.26
2023-05-14T04:00:35.614Z,11.36
2023-05-14T04:01:35.599Z,11.33
2023-05-14T04:02:35.627Z,11.39
2023-05-14T04:03:35.820Z,11.36
2023-05-14T04:04:35.671Z,11.38
2023-05-14T04:05:35.578Z,11.33
2023-05-14T04:06:35.571Z,11.24
2023-05-14T04:07:35.541Z,11.28
2023-05-14T04:08:35.542Z,11.28
2023-05-14T04:09:35.532Z,11.23
2023-05-14T04:10:35.526Z,11.23
2023-05-14T04:11:35.506Z,11.24
2023-05-14T04:12:35.500Z,11.33
2023-05-14T04:13:35.495Z,11.30
2023-05-14T04:14:35.468Z,11.21
2023-05-14T04:15:35.467Z,11.31
2023-05-14T04:16:35.558Z,11.41
2023-05-14T04:17:35.454Z,11.24
2023-05-14T04:18:35.474Z,11.36
2023-05-14T04:19:35.423Z,11.36
2023-05-14T04:20:35.412Z,11.42
2023-05-14T04:21:35.403Z,11.35
2023-05-14T04:22:35.409Z,11.45
2023-05-14T04:23:35.392Z,11.49
2023-05-14T04:24:35.371Z,11.57
2023-05-14T04:25:35.359Z,11.57
2023-05-14T04:26:35.352Z,11.63
2023-05-14T04:27:35.352Z,11.60
2023-05-14T04:28:35.336Z,11.66
2023-05-14T04:29:35.312Z,11.62
2023-05-14T04:30:35.303Z,11.54
2023-05-14T04:31:35.312Z,11.53
2023-05-14T04:32:35.312Z,11.49
2023-05-14T04:33:35.280Z,11.51
2023-05-14T04:34:35.275Z,11.59
2023-05-14T04:35:35.260Z,11.60
2023-05-14T04:36:35.255Z,11.62
2023-05-14T04:37:35.243Z,11.62
2023-05-14T04:38:35.222Z,11.67
2023-05-14T04:39:35.208Z,11.64
2023-05-14T04:40:35.200Z,11.72
2023-05-14T04:41:35.201Z,11.74
2023-05-14T04:42:35.182Z,11.74
2023-05-14T04:43:35.193Z,11.74
2023-05-14T04:44:35.150Z,11.77
2023-05-14T04:45:36.245Z,11.81
2023-05-14T04:46:35.328Z,11.70
2023-05-14T04:47:35.147Z,11.77
2023-05-14T04:48:35.111Z,11.84
2023-05-14T04:49:35.100Z,11.75
2023-05-14T04:50:35.117Z,11.78
2023-05-14T04:51:35.102Z,11.79
2023-05-14T04:52:35.069Z,11.84
2023-05-14T04:53:35.054Z,11.88
2023-05-14T04:54:35.148Z,11.82
2023-05-14T04:55:35.053Z,11.96
2023-05-14T04:56:35.024Z,11.85
2023-05-14T04:57:35.021Z,11.97
2023-05-14T04:58:35.386Z,11.96
2023-05-14T04:59:35.997Z,11.93
2023-05-14T05:00:34.989Z,12.01
2023-05-14T05:01:35.022Z,11.90
2023-05-14T05:02:35.030Z,11.88
2023-05-14T05:03:34.977Z,11.93
2023-05-14T05:04:34.951Z,11.94
2023-05-14T05:05:34.948Z,11.97
2023-05-14T05:06:34.926Z,12.04
2023-05-14T05:07:34.913Z,12.11
2023-05-14T05:08:34.905Z,12.00
2023-05-14T05:09:34.913Z,12.08
2023-05-14T05:10:34.893Z,12.08
2023-05-14T05:11:34.878Z,12.08
2023-05-14T05:12:34.866Z,12.13
2023-05-14T05:13:34.856Z,12.08
2023-05-14T05:14:34.850Z,12.12
2023-05-14T05:15:35.859Z,12.13
2023-05-14T05:16:34.963Z,12.13
2023-05-14T05:17:34.858Z,12.21
2023-05-14T05:18:35.086Z,12.11
2023-05-14T05:19:43.237Z,12.18
2023-05-14T05:20:36.788Z,12.16
2023-05-14T05:21:34.774Z,12.15
2023-05-14T05:22:34.776Z,12.07
2023-05-14T05:23:34.768Z,12.07
2023-05-14T05:24:34.745Z,12.03
2023-05-14T05:25:34.738Z,12.04
2023-05-14T05:26:34.719Z,11.96
2023-05-14T05:27:34.713Z,12.00
2023-05-14T05:28:34.717Z,11.98
2023-05-14T05:29:34.693Z,11.96
2023-05-14T05:30:34.696Z,12.03
2023-05-14T05:31:34.755Z,12.03
2023-05-14T05:32:34.820Z,12.07
2023-05-14T05:33:34.662Z,11.98
2023-05-14T05:34:34.646Z,11.97
2023-05-14T05:35:34.642Z,12.03
2023-05-14T05:36:34.622Z,12.00
2023-05-14T05:37:34.843Z,12.08
2023-05-14T05:38:34.596Z,12.13
2023-05-14T05:39:34.605Z,12.08
2023-05-14T05:40:34.591Z,12.01
2023-05-14T05:41:34.571Z,12.03
2023-05-14T05:42:34.720Z,12.12
2023-05-14T05:43:34.555Z,12.12
2023-05-14T05:44:34.537Z,12.13
2023-05-14T05:45:34.521Z,12.19
2023-05-14T05:46:34.544Z,12.13
2023-05-14T05:47:34.693Z,12.31
2023-05-14T05:48:35.491Z,12.22
2023-05-14T05:49:34.484Z,12.16
2023-05-14T05:50:34.498Z,12.22
2023-05-14T05:51:34.487Z,12.23
2023-05-14T05:52:34.476Z,12.23
2023-05-14T05:53:34.460Z,12.29
2023-05-14T05:54:34.448Z,12.31
2023-05-14T05:55:34.425Z,12.36
2023-05-14T05:56:34.442Z,12.26
2023-05-14T05:57:34.414Z,12.33
2023-05-14T05:58:34.389Z,12.37
2023-05-14T05:59:34.384Z,12.34
2023-05-14T06:00:34.384Z,12.38
2023-05-14T06:01:34.392Z,12.43
2023-05-14T06:02:34.383Z,12.44
2023-05-14T06:03:34.343Z,12.55
2023-05-14T06:04:34.336Z,12.58
2023-05-14T06:05:34.366Z,12.58
2023-05-14T06:06:34.308Z,12.55
2023-05-14T06:07:34.300Z,12.66
2023-05-14T06:08:34.290Z,12.63
2023-05-14T06:09:34.277Z,12.62
2023-05-14T06:10:34.289Z,12.70
2023-05-14T06:11:34.255Z,12.76
2023-05-14T06:12:34.259Z,12.59
2023-05-14T06:13:34.252Z,12.63
2023-05-14T06:14:34.245Z,12.73
2023-05-14T06:15:34.234Z,12.79
2023-05-14T06:16:34.275Z,12.80
2023-05-14T06:17:34.224Z,12.92
2023-05-14T06:18:34.218Z,12.91
2023-05-14T06:19:34.181Z,12.99
2023-05-14T06:20:34.221Z,13.04
2023-05-14T06:21:34.153Z,13.19
2023-05-14T06:22:34.144Z,13.12
2023-05-14T06:23:34.193Z,13.29
2023-05-14T06:24:34.131Z,13.47
2023-05-14T06:25:34.118Z,13.54
2023-05-14T06:26:34.101Z,13.63
2023-05-14T06:27:34.089Z,13.71
2023-05-14T06:28:34.094Z,13.80
2023-05-14T06:29:34.084Z,13.87
2023-05-14T06:30:34.100Z,13.91
2023-05-14T06:31:34.068Z,13.93
2023-05-14T06:32:34.053Z,14.06
2023-05-14T06:33:34.042Z,14.04
2023-05-14T06:34:34.030Z,14.20
2023-05-14T06:35:34.012Z,14.19
2023-05-14T06:36:34.000Z,14.24
2023-05-14T06:37:33.998Z,14.27
2023-05-14T06:38:34.026Z,14.36
2023-05-14T06:39:33.970Z,14.35
2023-05-14T06:40:34.113Z,14.31
2023-05-14T06:41:33.948Z,14.35
2023-05-14T06:42:33.969Z,14.17
2023-05-14T06:43:33.946Z,13.98
2023-05-14T06:44:33.919Z,13.84
2023-05-14T06:45:34.028Z,13.61
2023-05-14T06:46:33.894Z,13.65
2023-05-14T06:47:33.908Z,13.54
2023-05-14T06:48:33.957Z,13.47
2023-05-14T06:49:33.866Z,13.57
2023-05-14T06:50:33.855Z,13.63
2023-05-14T06:51:33.857Z,13.59
2023-05-14T06:52:33.862Z,13.51
2023-05-14T06:53:33.847Z,13.57
2023-05-14T06:54:33.823Z,13.51
2023-05-14T06:55:33.834Z,13.62
2023-05-14T06:56:33.818Z,13.87
2023-05-14T06:57:33.799Z,13.87
2023-05-14T06:58:33.786Z,13.76
2023-05-14T06:59:33.770Z,13.63
2023-05-14T07:00:33.762Z,13.83
2023-05-14T07:01:33.795Z,13.80
2023-05-14T07:02:33.757Z,13.84
2023-05-14T07:03:33.729Z,13.96
2023-05-14T07:04:33.764Z,13.81
2023-05-14T07:05:33.736Z,13.90
2023-05-14T07:06:33.715Z,13.88
2023-05-14T07:07:33.686Z,14.02
2023-05-14T07:08:33.668Z,13.94
2023-05-14T07:09:33.667Z,14.09
2023-05-14T07:10:33.666Z,13.96
2023-05-14T07:11:33.659Z,14.08
2023-05-14T07:12:33.645Z,14.12
2023-05-14T07:13:33.641Z,14.02
2023-05-14T07:14:33.623Z,14.11
2023-05-14T07:15:33.630Z,14.09
2023-05-14T07:16:33.641Z,14.20
2023-05-14T07:17:33.622Z,14.23
2023-05-14T07:18:33.589Z,14.12
2023-05-14T07:19:33.584Z,14.11
2023-05-14T07:20:33.567Z,14.11
2023-05-14T07:21:33.548Z,14.06
2023-05-14T07:22:33.544Z,14.20
2023-05-14T07:23:33.524Z,14.27
2023-05-14T07:24:33.552Z,14.20
2023-05-14T07:25:33.523Z,14.34
2023-05-14T07:26:33.501Z,14.36
2023-05-14T07:27:33.498Z,14.36
2023-05-14T07:28:33.475Z,14.52
2023-05-14T07:29:33.480Z,14.45
2023-05-14T07:30:33.556Z,14.52
2023-05-14T07:31:33.467Z,14.59
2023-05-14T07:32:33.464Z,14.75
2023-05-14T07:33:33.432Z,14.86
2023-05-14T07:34:33.434Z,14.79
2023-05-14T07:35:33.506Z,14.80
2023-05-14T07:36:33.397Z,14.75
2023-05-14T07:37:33.399Z,14.90
2023-05-14T07:38:33.397Z,14.95
2023-05-14T07:39:33.378Z,15.15
2023-05-14T07:40:33.487Z,14.80
2023-05-14T07:41:33.356Z,14.67
2023-05-14T07:42:36.620Z,14.86
2023-05-14T07:43:34.341Z,14.78
2023-05-14T07:44:33.334Z,14.87
2023-05-14T07:45:33.315Z,14.90
2023-05-14T07:46:33.302Z,14.94
2023-05-14T07:47:33.395Z,15.00
2023-05-14T07:48:33.466Z,15.00
2023-05-14T07:49:33.268Z,14.90
2023-05-14T07:50:33.263Z,14.87
2023-05-14T07:51:33.255Z,14.98
2023-05-14T07:52:33.249Z,14.85
2023-05-14T07:53:33.239Z,14.85
2023-05-14T07:54:33.216Z,14.90
2023-05-14T07:55:33.210Z,14.80
2023-05-14T07:56:33.204Z,14.95
2023-05-14T07:57:33.311Z,14.90
2023-05-14T07:58:33.172Z,14.86
2023-05-14T07:59:33.169Z,14.90
2023-05-14T08:00:33.159Z,14.75
2023-05-14T08:01:33.153Z,14.82
2023-05-14T08:02:33.195Z,14.75
2023-05-14T08:03:33.186Z,14.75
2023-05-14T08:04:33.130Z,14.74
2023-05-14T08:05:33.113Z,14.78
2023-05-14T08:06:33.117Z,14.95
2023-05-14T08:07:33.119Z,14.90
2023-05-14T08:08:33.074Z,15.12
2023-05-14T08:09:33.070Z,15.18
2023-05-14T08:10:33.070Z,15.27
2023-05-14T08:11:33.061Z,15.34
2023-05-14T08:12:33.039Z,15.44
2023-05-14T08:13:33.072Z,15.40
2023-05-14T08:14:33.032Z,15.52
2023-05-14T08:15:33.007Z,15.77
2023-05-14T08:16:33.162Z,15.64
2023-05-14T08:17:33.022Z,15.84
2023-05-14T08:18:33.004Z,15.89
2023-05-14T08:19:32.968Z,15.66
2023-05-14T08:20:32.973Z,15.62
2023-05-14T08:21:32.971Z,15.85
2023-05-14T08:22:32.941Z,15.89
2023-05-14T08:23:32.938Z,15.88
2023-05-14T08:24:32.927Z,15.89
2023-05-14T08:25:32.927Z,15.74
2023-05-14T08:26:32.903Z,15.85
2023-05-14T08:27:32.902Z,15.86
2023-05-14T08:28:32.887Z,15.88
2023-05-14T08:29:32.875Z,15.77
2023-05-14T08:30:32.987Z,15.71
2023-05-14T08:31:32.890Z,15.62
2023-05-14T08:32:32.899Z,15.46
2023-05-14T08:33:32.850Z,15.70
2023-05-14T08:34:32.837Z,15.95
2023-05-14T08:35:32.839Z,16.03
2023-05-14T08:36:32.831Z,16.06
2023-05-14T08:37:32.790Z,15.98
2023-05-14T08:38:32.797Z,15.99
2023-05-14T08:39:32.793Z,15.93
2023-05-14T08:40:32.766Z,16.13
2023-05-14T08:41:32.757Z,16.04
2023-05-14T08:42:32.749Z,15.96
2023-05-14T08:43:32.752Z,16.14
2023-05-14T08:44:32.752Z,16.18
2023-05-14T08:45:32.716Z,16.48
2023-05-14T08:46:32.703Z,16.73
2023-05-14T08:47:32.721Z,16.72
2023-05-14T08:48:32.840Z,16.91
2023-05-14T08:49:32.683Z,16.72
2023-05-14T08:50:32.673Z,16.63
2023-05-14T08:51:32.663Z,16.44
2023-05-14T08:52:32.644Z,16.63
2023-05-14T08:53:32.646Z,16.72
2023-05-14T08:54:32.638Z,16.87
2023-05-14T08:55:32.627Z,16.88
2023-05-14T08:56:32.608Z,16.84
2023-05-14T08:57:32.600Z,16.65
2023-05-14T08:58:32.601Z,16.54
2023-05-14T08:59:32.578Z,16.54
2023-05-14T09:00:32.565Z,16.54
2023-05-14T09:01:32.587Z,16.42
2023-05-14T09:02:32.581Z,16.52
2023-05-14T09:03:32.586Z,16.67
2023-05-14T09:04:32.527Z,16.66
2023-05-14T09:05:32.515Z,16.75
2023-05-14T09:06:32.508Z,16.67
2023-05-14T09:07:32.515Z,16.87
2023-05-14T09:08:32.487Z,17.07
2023-05-14T09:09:32.474Z,16.99
2023-05-14T09:10:32.488Z,17.21
2023-05-14T09:11:32.464Z,16.95
2023-05-14T09:12:32.463Z,17.02
2023-05-14T09:13:32.440Z,16.70
2023-05-14T09:14:32.428Z,16.77
2023-05-14T09:15:32.425Z,16.66
2023-05-14T09:16:32.449Z,16.81
2023-05-14T09:17:32.487Z,16.96
2023-05-14T09:18:32.436Z,17.12
2023-05-14T09:19:32.403Z,17.20
2023-05-14T09:20:32.380Z,17.27
2023-05-14T09:21:33.528Z,17.40
2023-05-14T09:22:33.356Z,17.47
2023-05-14T09:23:32.345Z,17.45
2023-05-14T09:24:32.328Z,17.12
2023-05-14T09:25:32.316Z,17.02
2023-05-14T09:26:32.326Z,17.02
2023-05-14T09:27:32.302Z,16.82
2023-05-14T09:28:32.289Z,16.77
2023-05-14T09:29:32.282Z,16.84
2023-05-14T09:30:32.296Z,16.72
2023-05-14T09:31:32.319Z,16.70
2023-05-14T09:32:32.256Z,16.80
2023-05-14T09:33:32.247Z,16.62
2023-05-14T09:34:32.233Z,16.59
2023-05-14T09:35:32.234Z,16.72
2023-05-14T09:36:32.216Z,16.78
2023-05-14T09:37:32.201Z,16.85
2023-05-14T09:38:32.187Z,16.92
2023-05-14T09:39:32.196Z,16.85
2023-05-14T09:40:32.196Z,16.78
2023-05-14T09:41:32.162Z,16.84
2023-05-14T09:42:32.155Z,16.87
2023-05-14T09:43:32.147Z,16.72
2023-05-14T09:44:32.140Z,16.85
2023-05-14T09:45:32.140Z,16.85
2023-05-14T09:46:32.119Z,16.91
2023-05-14T09:47:32.247Z,16.69
2023-05-14T09:48:32.163Z,16.26
2023-05-14T09:49:32.100Z,16.30
2023-05-14T09:50:32.077Z,16.52
2023-05-14T09:51:32.067Z,16.63
2023-05-14T09:52:32.052Z,16.82
2023-05-14T09:53:32.050Z,16.67
2023-05-14T09:54:32.051Z,16.92
2023-05-14T09:55:32.031Z,16.77
2023-05-14T09:56:32.019Z,16.88
2023-05-14T09:57:32.013Z,17.03
2023-05-14T09:58:32.000Z,17.20
2023-05-14T09:59:32.004Z,17.17
2023-05-14T10:00:31.981Z,17.24
2023-05-14T10:01:32.006Z,17.62
2023-05-14T10:02:32.003Z,17.79
2023-05-14T10:03:31.966Z,17.73
2023-05-14T10:04:32.092Z,17.39
2023-05-14T10:05:31.930Z,17.27
2023-05-14T10:06:31.922Z,17.24
2023-05-14T10:07:31.951Z,17.39
2023-05-14T10:08:31.914Z,17.27
2023-05-14T10:09:31.895Z,17.24
2023-05-14T10:10:31.887Z,17.24
2023-05-14T10:11:31.876Z,17.22
2023-05-14T10:12:31.863Z,16.87
2023-05-14T10:13:31.892Z,16.69
2023-05-14T10:14:31.847Z,16.63
2023-05-14T10:15:31.841Z,16.84
2023-05-14T10:16:31.841Z,17.06
2023-05-14T10:17:31.861Z,17.14
2023-05-14T10:18:31.841Z,17.49
2023-05-14T10:19:31.792Z,17.57
2023-05-14T10:20:31.787Z,17.70
2023-05-14T10:21:31.787Z,17.76
2023-05-14T10:22:31.776Z,17.76
2023-05-14T10:23:31.761Z,17.73
2023-05-14T10:24:31.752Z,17.79
2023-05-14T10:25:31.735Z,17.73
2023-05-14T10:26:31.739Z,17.77
2023-05-14T10:27:31.726Z,17.74
2023-05-14T10:28:31.704Z,17.73
2023-05-14T10:29:31.693Z,18.01
2023-05-14T10:30:31.680Z,18.14
2023-05-14T10:31:31.706Z,18.51
2023-05-14T10:32:31.705Z,18.62
2023-05-14T10:33:31.656Z,18.62
2023-05-14T10:34:31.658Z,18.51
2023-05-14T10:35:31.638Z,18.31
2023-05-14T10:36:31.635Z,18.38
2023-05-14T10:37:31.615Z,18.51
2023-05-14T10:38:31.609Z,18.54
2023-05-14T10:39:31.593Z,18.84
2023-05-14T10:40:31.596Z,19.16
2023-05-14T10:41:31.583Z,19.23
2023-05-14T10:42:31.573Z,19.45
2023-05-14T10:43:31.552Z,19.71
2023-05-14T10:44:31.598Z,19.40
2023-05-14T10:45:31.548Z,18.79
2023-05-14T10:46:31.560Z,18.66
2023-05-14T10:47:31.551Z,18.13
2023-05-14T10:48:31.514Z,18.11
2023-05-14T10:49:42.900Z,18.53
2023-05-14T10:50:33.498Z,18.36
2023-05-14T10:51:31.600Z,18.46
2023-05-14T10:52:31.464Z,18.53
2023-05-14T10:53:31.459Z,18.59
2023-05-14T10:54:31.497Z,18.78
2023-05-14T10:55:31.451Z,18.68
2023-05-14T10:56:31.424Z,18.16
2023-05-14T10:57:31.428Z,17.60
2023-05-14T10:58:31.409Z,17.60
2023-05-14T10:59:31.411Z,17.57
2023-05-14T11:00:31.423Z,17.92
2023-05-14T11:01:31.399Z,17.98
2023-05-14T11:02:31.395Z,17.98
2023-05-14T11:03:31.403Z,17.96
2023-05-14T11:04:31.361Z,17.83
2023-05-14T11:05:31.351Z,17.77
2023-05-14T11:06:31.345Z,17.80
2023-05-14T11:07:31.323Z,17.87
2023-05-14T11:08:31.325Z,18.09
2023-05-14T11:09:31.316Z,18.42
2023-05-14T11:10:31.287Z,18.62
2023-05-14T11:11:31.320Z,18.93
2023-05-14T11:12:32.273Z,19.20
2023-05-14T11:13:31.276Z,19.49
2023-05-14T11:14:31.318Z,19.38
2023-05-14T11:15:31.242Z,19.39
2023-05-14T11:16:31.269Z,19.55
2023-05-14T11:17:31.283Z,19.52
2023-05-14T11:18:32.264Z,19.80
2023-05-14T11:19:31.208Z,20.01
2023-05-14T11:20:31.204Z,19.50
2023-05-14T11:21:31.223Z,19.25
2023-05-14T11:22:31.203Z,18.91
2023-05-14T11:23:31.179Z,19.17
2023-05-14T11:24:31.190Z,19.15
2023-05-14T11:25:31.152Z,18.91
2023-05-14T11:26:31.163Z,18.75
2023-05-14T11:27:31.148Z,18.76
2023-05-14T11:28:31.123Z,18.71
2023-05-14T11:29:31.110Z,18.57
2023-05-14T11:30:31.108Z,18.57
2023-05-14T11:31:31.130Z,18.57
2023-05-14T11:32:31.191Z,18.35
2023-05-14T11:33:31.075Z,18.19
2023-05-14T11:34:31.093Z,17.98
2023-05-14T11:35:31.051Z,17.94
2023-05-14T11:36:31.052Z,17.98
2023-05-14T11:37:31.047Z,17.80
2023-05-14T11:38:31.035Z,17.65
2023-05-14T11:39:31.015Z,17.62
2023-05-14T11:40:31.014Z,17.66
2023-05-14T11:41:31.011Z,17.62
2023-05-14T11:42:30.980Z,17.62
2023-05-14T11:43:30.969Z,17.62
2023-05-14T11:44:30.968Z,17.74
2023-05-14T11:45:30.956Z,17.81
2023-05-14T11:46:31.034Z,18.02
2023-05-14T11:47:30.971Z,18.02
2023-05-14T11:48:30.945Z,17.83
2023-05-14T11:49:31.005Z,18.04
2023-05-14T11:50:30.923Z,18.28
2023-05-14T11:51:30.918Z,18.32
2023-05-14T11:52:30.889Z,18.53
2023-05-14T11:53:30.892Z,18.64
2023-05-14T11:54:30.883Z,18.68
2023-05-14T11:55:30.862Z,18.96
2023-05-14T11:56:31.851Z,19.31
2023-05-14T11:57:30.860Z,19.40
2023-05-14T11:58:30.830Z,19.55
2023-05-14T11:59:30.821Z,19.79
2023-05-14T12:00:30.826Z,19.83
2023-05-14T12:01:30.800Z,20.05
2023-05-14T12:02:30.892Z,19.86
2023-05-14T12:03:30.950Z,19.75
2023-05-14T12:04:30.834Z,19.27
2023-05-14T12:05:30.773Z,19.16
2023-05-14T12:06:30.754Z,19.42
2023-05-14T12:07:30.745Z,19.76
2023-05-14T12:08:30.734Z,19.72
2023-05-14T12:09:30.734Z,19.68
2023-05-14T12:10:30.712Z,19.25
2023-05-14T12:11:30.699Z,19.07
2023-05-14T12:12:30.692Z,19.25
2023-05-14T12:13:30.713Z,19.57
2023-05-14T12:14:30.682Z,19.52
2023-05-14T12:15:30.657Z,19.78
2023-05-14T12:16:30.689Z,19.89
2023-05-14T12:17:30.666Z,19.76
2023-05-14T12:18:30.850Z,19.34
2023-05-14T12:19:30.676Z,19.50
2023-05-14T12:20:30.626Z,19.72
2023-05-14T12:21:30.600Z,19.57
2023-05-14T12:22:30.605Z,19.27
2023-05-14T12:23:30.595Z,19.24
2023-05-14T12:24:30.583Z,19.06
2023-05-14T12:25:30.568Z,19.02
2023-05-14T12:26:30.552Z,18.86
2023-05-14T12:27:30.543Z,18.69
2023-05-14T12:28:30.549Z,18.53
2023-05-14T12:29:30.525Z,18.39
2023-05-14T12:30:30.517Z,18.57
2023-05-14T12:31:30.533Z,19.24
2023-05-14T12:32:30.525Z,19.17
2023-05-14T12:33:30.510Z,19.10
2023-05-14T12:34:30.469Z,19.42
2023-05-14T12:35:30.471Z,19.72
2023-05-14T12:36:30.455Z,19.83
2023-05-14T12:37:31.337Z,20.10
2023-05-14T12:38:31.436Z,20.41
2023-05-14T12:39:30.425Z,20.68
2023-05-14T12:40:30.415Z,20.30
2023-05-14T12:41:30.409Z,20.04
2023-05-14T12:42:30.411Z,19.97
2023-05-14T12:43:30.376Z,19.86
2023-05-14T12:44:31.381Z,19.65
2023-05-14T12:45:30.365Z,19.38
2023-05-14T12:46:30.387Z,19.25
2023-05-14T12:47:30.379Z,19.10
2023-05-14T12:48:30.423Z,18.79
2023-05-14T12:49:30.335Z,18.14
2023-05-14T12:50:30.319Z,17.80
2023-05-14T12:51:30.425Z,17.42
2023-05-14T12:53:31.312Z,17.07